Texarkana, TX (75501)

2:19 PM CST on February 14, 2016 (GMT -0600)
Wake Village Fire Dept. | | Change Station
CLOSE
Current Station
Personal Weather Station
Location: Wake Village, TX
Elevation: 358 ft
Nearby Weather Stations
Active Advisory: Flood Warning

Elev 358 ft 33.43 °N, 94.11 °W | Updated 5 minutes ago

Overcast
Overcast
57.7 °F
Feels Like 57.7 °F
N
3.0
Wind Variable Wind from SE
Gusts 6.0 mph

Today
High -- | Low -- °F
--% Chance of Precip.
Yesterday
High -- | Low -- °F
Precip. -- in
Pressure 29.95 in
Visibility 8.0 miles
Clouds Overcast 4100 ft
Dew Point 51 °F
Humidity 78%
Rainfall 0.00 in
Snow Depth Not available.
7:02 AM 6:00 PM
Waxing Crescent, 45% visible
METAR KTXK 141953Z 18006KT 8SM OVC041 14/09 A2995 RMK AO2 SLP141 T01390094
Pressure 29.95 in
Visibility 8.0 miles
Clouds Overcast 4100 ft
Dew Point 51 °F
Humidity 78%
Rainfall 0.00 in
Snow Depth Not available.
7:02 AM 6:00 PM
Waxing Crescent, 45% visible
METAR KTXK 141953Z 18006KT 8SM OVC041 14/09 A2995 RMK AO2 SLP141 T01390094

10-Day Weather Forecast

Almanac

Astronomy

Feb. 14, 2016 Rise Set
Actual Time
Civil Twilight
Nautical Twilight
Astronomical Twilight
Moon
Length of Visible Light
Length of Day
Tomorrow will be .
, % of the Moon is Illuminated

Today's Extremes

State Highs State Lows

Community

WunderPhotos

Upload Photos

1,892,880 photos uploaded!

WunderBlog® & News

Nearby

Air Quality

  Air Quality AQ Index Pollutant
Not available.

Snow Depth

Station Depth Elevation

Earthquake Activity

City Distance Mag. Time & Date
Minimum magnitude displayed is 2.5.

Coastal Water Temperatures

Place Temperature

Stations

Nearby Weather Stations

Station Location Temp. Windchill Dew Point Humidity Wind Precip. Elev Updated Type
                   

Watches & Warnings

Flood Warning
Issued: 9:34 AM CST Feb. 14, 2016 – National Weather Service

The Flood Warning continues for
the Sulphur river near Naples.
* Until further notice... or until the warning is cancelled.
* At 6:30 am Sunday the stage was 28.8 feet.
* Minor flooding is occurring and minor flooding is forecast.
* Flood stage is 22.0 feet.
* Forecast... the river will continue to fall to a stage of 28.3 feet
by tomorrow morning.
* Impact... at 28.0 feet... minor lowland flooding and flooded boat
ramps.


Lat... Lon 3331 9466 3328 9456 3330 9447 3324 9462 3326 9466


25